PWSweather.com
Personal Weather Stations
Station Observations
KB2SBX
Sugarloaf, Sugarloaf, PA 18249

SugarloafSugarloaf, PA 18249

Lat: 41.0126685, Lon: -76.1082041

Elevation: 1030

Station Type: WS-2080

http://sugarloafpaweather.webng.com/weather.shtml

High Low Average
Temperature 87.9°F31.1°C 66.5°F19.2°C 75.5°F24.2°C
Dew Point 74.6°F23.7°C 65.6°F18.7°C 70.0°F21.1°C
Winds 4.0 mph 6.4 kmh Calm Calm 1.0 mph S1.6 kmh S
Wind Gusts 11.0 mph17.7 kmh -- 3.0 mph4.8 kmh
Humidity 99% 57% 85%
Pressure 30.03 in1016.9 mb 29.76 in1007.8 mb -
Precipitation 0.47 in11.9 mm - -
Hour Temp Dew Point Humidity Winds Wind Gusts Pressure Precip Precip Rate Daily Precip Total
12:00 AM 70.7°F21.5°C 68.8°F20.4°C 94% Calm Calm -- 30.03 in1016.9 mb 0.00 in0.0 mm 0.00 in/hr0.0 mm/hr 0.00 in0.0 mm
12:05 AM 70.7°F21.5°C 68.8°F20.4°C 94% Calm Calm -- 30.03 in1016.9 mb 0.00 in0.0 mm 0.00 in/hr0.0 mm/hr 0.00 in0.0 mm
12:10 AM 70.5°F21.4°C 68.7°F20.4°C 94% Calm Calm 2.0 mph3.2 kmh 30.03 in1016.9 mb 0.00 in0.0 mm 0.00 in/hr0.0 mm/hr 0.00 in0.0 mm
12:15 AM 70.7°F21.5°C 68.8°F20.4°C 94% 1.0 mph NNW1.6 kmh NNW 2.0 mph3.2 kmh 30.03 in1016.9 mb 0.00 in0.0 mm 0.00 in/hr0.0 mm/hr 0.00 in0.0 mm
12:20 AM 70.5°F21.4°C 68.7°F20.4°C 94% Calm Calm 1.0 mph1.6 kmh 30.03 in1016.9 mb 0.00 in0.0 mm 0.00 in/hr0.0 mm/hr 0.00 in0.0 mm
12:25 AM 70.3°F21.3°C 68.5°F20.3°C 94% Calm Calm -- 30.04 in1017.3 mb 0.00 in0.0 mm 0.00 in/hr0.0 mm/hr 0.00 in0.0 mm
12:30 AM 70.3°F21.3°C 68.5°F20.3°C 94% Calm Calm 2.0 mph3.2 kmh 30.03 in1016.9 mb 0.00 in0.0 mm 0.00 in/hr0.0 mm/hr 0.00 in0.0 mm
12:35 AM 70.3°F21.3°C 68.5°F20.3°C 94% Calm Calm 1.0 mph1.6 kmh 30.04 in1017.3 mb 0.00 in0.0 mm 0.00 in/hr0.0 mm/hr 0.00 in0.0 mm
12:40 AM 70.3°F21.3°C 68.5°F20.3°C 94% Calm Calm 2.0 mph3.2 kmh 30.03 in1016.9 mb 0.00 in0.0 mm 0.00 in/hr0.0 mm/hr 0.00 in0.0 mm
12:45 AM 70.3°F21.3°C 68.5°F20.3°C 94% Calm Calm 1.0 mph1.6 kmh 30.03 in1016.9 mb 0.00 in0.0 mm 0.00 in/hr0.0 mm/hr 0.00 in0.0 mm
12:50 AM 70.3°F21.3°C 68.5°F20.3°C 94% Calm Calm 2.0 mph3.2 kmh 30.03 in1016.9 mb 0.00 in0.0 mm 0.00 in/hr0.0 mm/hr 0.00 in0.0 mm
12:55 AM 70.3°F21.3°C 68.5°F20.3°C 94% 1.0 mph SSE1.6 kmh SSE 2.0 mph3.2 kmh 30.03 in1016.9 mb 0.00 in0.0 mm 0.00 in/hr0.0 mm/hr 0.00 in0.0 mm
01:00 AM 70.7°F21.5°C 68.8°F20.4°C 94% 1.0 mph SSE1.6 kmh SSE 4.0 mph6.4 kmh 30.03 in1016.9 mb 0.00 in0.0 mm 0.00 in/hr0.0 mm/hr 0.00 in0.0 mm
01:05 AM 70.7°F21.5°C 68.8°F20.4°C 94% Calm Calm 2.0 mph3.2 kmh 30.03 in1016.9 mb 0.00 in0.0 mm 0.00 in/hr0.0 mm/hr 0.00 in0.0 mm
01:10 AM 70.7°F21.5°C 68.5°F20.3°C 93% 2.0 mph SSW3.2 kmh SSW 5.0 mph8.0 kmh 30.03 in1016.9 mb 0.00 in0.0 mm 0.00 in/hr0.0 mm/hr 0.00 in0.0 mm
01:15 AM 70.8°F21.6°C 68.7°F20.4°C 93% Calm Calm 2.0 mph3.2 kmh 30.03 in1016.9 mb 0.00 in0.0 mm 0.00 in/hr0.0 mm/hr 0.00 in0.0 mm
01:20 AM 70.8°F21.6°C 68.7°F20.4°C 93% Calm Calm 2.0 mph3.2 kmh 30.03 in1016.9 mb 0.00 in0.0 mm 0.00 in/hr0.0 mm/hr 0.00 in0.0 mm
01:25 AM 70.7°F21.5°C 68.2°F20.1°C 92% 2.0 mph NNE3.2 kmh NNE 4.0 mph6.4 kmh 30.03 in1016.9 mb 0.00 in0.0 mm 0.00 in/hr0.0 mm/hr 0.00 in0.0 mm
01:30 AM 70.7°F21.5°C 68.2°F20.1°C 92% Calm Calm 2.0 mph3.2 kmh 30.02 in1016.6 mb 0.00 in0.0 mm 0.00 in/hr0.0 mm/hr 0.00 in0.0 mm
01:35 AM 70.7°F21.5°C 68.2°F20.1°C 92% Calm Calm 2.0 mph3.2 kmh 30.03 in1016.9 mb 0.00 in0.0 mm 0.00 in/hr0.0 mm/hr 0.00 in0.0 mm
01:40 AM 70.5°F21.4°C 68.0°F20.0°C 92% Calm Calm 1.0 mph1.6 kmh 30.02 in1016.6 mb 0.00 in0.0 mm 0.00 in/hr0.0 mm/hr 0.00 in0.0 mm
01:45 AM 70.3°F21.3°C 67.8°F19.9°C 92% Calm Calm 1.0 mph1.6 kmh 30.03 in1016.9 mb 0.00 in0.0 mm 0.00 in/hr0.0 mm/hr 0.00 in0.0 mm
01:50 AM 70.3°F21.3°C 67.8°F19.9°C 92% Calm Calm 2.0 mph3.2 kmh 30.02 in1016.6 mb 0.00 in0.0 mm 0.00 in/hr0.0 mm/hr 0.00 in0.0 mm
01:55 AM 70.1°F21.2°C 67.7°F19.8°C 92% Calm Calm -- 30.02 in1016.6 mb 0.00 in0.0 mm 0.00 in/hr0.0 mm/hr 0.00 in0.0 mm
02:00 AM 70.1°F21.2°C 67.7°F19.8°C 92% Calm Calm -- 30.01 in1016.3 mb 0.00 in0.0 mm 0.00 in/hr0.0 mm/hr 0.00 in0.0 mm
02:05 AM 70.1°F21.2°C 67.7°F19.8°C 92% Calm Calm -- 30.01 in1016.3 mb 0.00 in0.0 mm 0.00 in/hr0.0 mm/hr 0.00 in0.0 mm
02:10 AM 69.8°F21.0°C 67.3°F19.6°C 92% Calm Calm -- 30.01 in1016.3 mb 0.00 in0.0 mm 0.00 in/hr0.0 mm/hr 0.00 in0.0 mm
02:15 AM 69.8°F21.0°C 67.3°F19.6°C 92% Calm Calm -- 30.02 in1016.6 mb 0.00 in0.0 mm 0.00 in/hr0.0 mm/hr 0.00 in0.0 mm
02:20 AM 69.6°F20.9°C 67.5°F19.7°C 93% Calm Calm 2.0 mph3.2 kmh 30.01 in1016.3 mb 0.00 in0.0 mm 0.00 in/hr0.0 mm/hr 0.00 in0.0 mm
02:25 AM 69.6°F20.9°C 67.5°F19.7°C 93% Calm Calm 1.0 mph1.6 kmh 30.02 in1016.6 mb 0.00 in0.0 mm 0.00 in/hr0.0 mm/hr 0.00 in0.0 mm
02:30 AM 69.6°F20.9°C 67.8°F19.9°C 94% 1.0 mph ESE1.6 kmh ESE 2.0 mph3.2 kmh 30.01 in1016.3 mb 0.00 in0.0 mm 0.00 in/hr0.0 mm/hr 0.00 in0.0 mm
02:35 AM 69.4°F20.8°C 67.6°F19.8°C 94% 1.0 mph NNW1.6 kmh NNW 2.0 mph3.2 kmh 30.01 in1016.3 mb 0.00 in0.0 mm 0.00 in/hr0.0 mm/hr 0.00 in0.0 mm
02:40 AM 69.4°F20.8°C 67.6°F19.8°C 94% Calm Calm 1.0 mph1.6 kmh 30.01 in1016.3 mb 0.00 in0.0 mm 0.00 in/hr0.0 mm/hr 0.00 in0.0 mm
02:45 AM 69.6°F20.9°C 67.8°F19.9°C 94% Calm Calm 3.0 mph4.8 kmh 30.01 in1016.3 mb 0.00 in0.0 mm 0.00 in/hr0.0 mm/hr 0.00 in0.0 mm
02:50 AM 69.6°F20.9°C 67.8°F19.9°C 94% Calm Calm 2.0 mph3.2 kmh 30.01 in1016.3 mb 0.00 in0.0 mm 0.00 in/hr0.0 mm/hr 0.00 in0.0 mm
02:55 AM 69.6°F20.9°C 67.8°F19.9°C 94% Calm Calm -- 30.01 in1016.3 mb 0.00 in0.0 mm 0.00 in/hr0.0 mm/hr 0.00 in0.0 mm
03:00 AM 69.6°F20.9°C 67.8°F19.9°C 94% Calm Calm 1.0 mph1.6 kmh 30.00 in1015.9 mb 0.00 in0.0 mm 0.00 in/hr0.0 mm/hr 0.00 in0.0 mm
03:05 AM 69.4°F20.8°C 67.6°F19.8°C 94% Calm Calm -- 30.00 in1015.9 mb 0.00 in0.0 mm 0.00 in/hr0.0 mm/hr 0.00 in0.0 mm
03:10 AM 69.4°F20.8°C 67.6°F19.8°C 94% Calm Calm -- 29.99 in1015.6 mb 0.00 in0.0 mm 0.00 in/hr0.0 mm/hr 0.00 in0.0 mm
03:15 AM 69.2°F20.7°C 67.4°F19.7°C 94% Calm Calm -- 29.99 in1015.6 mb 0.00 in0.0 mm 0.00 in/hr0.0 mm/hr 0.00 in0.0 mm
03:20 AM 69.0°F20.6°C 67.2°F19.6°C 94% Calm Calm -- 29.99 in1015.6 mb 0.00 in0.0 mm 0.00 in/hr0.0 mm/hr 0.00 in0.0 mm
03:25 AM 68.9°F20.5°C 67.0°F19.4°C 94% Calm Calm 2.0 mph3.2 kmh 29.99 in1015.6 mb 0.00 in0.0 mm 0.00 in/hr0.0 mm/hr 0.00 in0.0 mm
03:30 AM 68.9°F20.5°C 67.0°F19.4°C 94% Calm Calm -- 29.99 in1015.6 mb 0.00 in0.0 mm 0.00 in/hr0.0 mm/hr 0.00 in0.0 mm
03:35 AM 68.7°F20.4°C 67.2°F19.6°C 95% Calm Calm -- 29.99 in1015.6 mb 0.00 in0.0 mm 0.00 in/hr0.0 mm/hr 0.00 in0.0 mm
03:40 AM 68.5°F20.3°C 67.0°F19.4°C 95% Calm Calm 1.0 mph1.6 kmh 29.99 in1015.6 mb 0.00 in0.0 mm 0.00 in/hr0.0 mm/hr 0.00 in0.0 mm
03:45 AM 68.3°F20.2°C 66.8°F19.3°C 95% Calm Calm 1.0 mph1.6 kmh 29.99 in1015.6 mb 0.00 in0.0 mm 0.00 in/hr0.0 mm/hr 0.00 in0.0 mm
03:50 AM 68.3°F20.2°C 66.8°F19.3°C 95% Calm Calm 1.0 mph1.6 kmh 29.99 in1015.6 mb 0.00 in0.0 mm 0.00 in/hr0.0 mm/hr 0.00 in0.0 mm
03:55 AM 68.1°F20.1°C 66.9°F19.4°C 96% Calm Calm -- 29.99 in1015.6 mb 0.00 in0.0 mm 0.00 in/hr0.0 mm/hr 0.00 in0.0 mm
04:00 AM 68.1°F20.1°C 66.9°F19.4°C 96% Calm Calm -- 29.99 in1015.6 mb 0.00 in0.0 mm 0.00 in/hr0.0 mm/hr 0.00 in0.0 mm
04:05 AM 68.1°F20.1°C 66.9°F19.4°C 96% Calm Calm -- 29.99 in1015.6 mb 0.00 in0.0 mm 0.00 in/hr0.0 mm/hr 0.00 in0.0 mm
04:10 AM 68.0°F20.0°C 66.8°F19.3°C 96% Calm Calm -- 29.99 in1015.6 mb 0.00 in0.0 mm 0.00 in/hr0.0 mm/hr 0.00 in0.0 mm
04:15 AM 68.0°F20.0°C 66.8°F19.3°C 96% 1.0 mph NNW1.6 kmh NNW 2.0 mph3.2 kmh 29.99 in1015.6 mb 0.00 in0.0 mm 0.00 in/hr0.0 mm/hr 0.00 in0.0 mm
04:20 AM 68.0°F20.0°C 67.1°F19.5°C 97% Calm Calm 2.0 mph3.2 kmh 29.99 in1015.6 mb 0.00 in0.0 mm 0.00 in/hr0.0 mm/hr 0.00 in0.0 mm
04:25 AM 67.8°F19.9°C 67.2°F19.6°C 98% Calm Calm -- 29.99 in1015.6 mb 0.00 in0.0 mm 0.00 in/hr0.0 mm/hr 0.00 in0.0 mm
04:30 AM 67.8°F19.9°C 67.2°F19.6°C 98% Calm Calm -- 29.98 in1015.2 mb 0.00 in0.0 mm 0.00 in/hr0.0 mm/hr 0.00 in0.0 mm
04:35 AM 67.8°F19.9°C 67.2°F19.6°C 98% Calm Calm -- 29.98 in1015.2 mb 0.00 in0.0 mm 0.00 in/hr0.0 mm/hr 0.00 in0.0 mm
04:40 AM 67.6°F19.8°C 67.0°F19.4°C 98% Calm Calm 2.0 mph3.2 kmh 29.98 in1015.2 mb 0.00 in0.0 mm 0.00 in/hr0.0 mm/hr 0.00 in0.0 mm
04:45 AM 67.6°F19.8°C 67.0°F19.4°C 98% Calm Calm 1.0 mph1.6 kmh 29.98 in1015.2 mb 0.00 in0.0 mm 0.00 in/hr0.0 mm/hr 0.00 in0.0 mm
04:50 AM 67.4°F19.7°C 66.8°F19.3°C 98% Calm Calm -- 29.97 in1014.9 mb 0.00 in0.0 mm 0.00 in/hr0.0 mm/hr 0.00 in0.0 mm
04:55 AM 67.4°F19.7°C 67.1°F19.5°C 99% Calm Calm -- 29.97 in1014.9 mb 0.00 in0.0 mm 0.00 in/hr0.0 mm/hr 0.00 in0.0 mm
05:00 AM 67.4°F19.7°C 67.1°F19.5°C 99% Calm Calm -- 29.97 in1014.9 mb 0.00 in0.0 mm 0.00 in/hr0.0 mm/hr 0.00 in0.0 mm
05:05 AM 67.2°F19.6°C 66.9°F19.4°C 99% Calm Calm -- 29.97 in1014.9 mb 0.00 in0.0 mm 0.00 in/hr0.0 mm/hr 0.00 in0.0 mm
05:10 AM 67.2°F19.6°C 66.9°F19.4°C 99% Calm Calm -- 29.97 in1014.9 mb 0.00 in0.0 mm 0.00 in/hr0.0 mm/hr 0.00 in0.0 mm
05:15 AM 67.2°F19.6°C 66.9°F19.4°C 99% Calm Calm -- 29.97 in1014.9 mb 0.00 in0.0 mm 0.00 in/hr0.0 mm/hr 0.00 in0.0 mm
05:20 AM 67.1°F19.5°C 66.8°F19.3°C 99% Calm Calm -- 29.97 in1014.9 mb 0.00 in0.0 mm 0.00 in/hr0.0 mm/hr 0.00 in0.0 mm
05:25 AM 67.1°F19.5°C 66.8°F19.3°C 99% 1.0 mph NNW1.6 kmh NNW 1.0 mph1.6 kmh 29.97 in1014.9 mb 0.00 in0.0 mm 0.00 in/hr0.0 mm/hr 0.00 in0.0 mm
05:30 AM 67.1°F19.5°C 66.8°F19.3°C 99% Calm Calm 1.0 mph1.6 kmh 29.96 in1014.6 mb 0.00 in0.0 mm 0.00 in/hr0.0 mm/hr 0.00 in0.0 mm
05:35 AM 67.1°F19.5°C 66.8°F19.3°C 99% Calm Calm -- 29.97 in1014.9 mb 0.00 in0.0 mm 0.00 in/hr0.0 mm/hr 0.00 in0.0 mm
05:40 AM 67.1°F19.5°C 66.8°F19.3°C 99% Calm Calm 1.0 mph1.6 kmh 29.97 in1014.9 mb 0.00 in0.0 mm 0.00 in/hr0.0 mm/hr 0.00 in0.0 mm
05:45 AM 67.1°F19.5°C 66.8°F19.3°C 99% 1.0 mph NNW1.6 kmh NNW 2.0 mph3.2 kmh 29.97 in1014.9 mb 0.00 in0.0 mm 0.00 in/hr0.0 mm/hr 0.00 in0.0 mm
05:50 AM 67.1°F19.5°C 66.8°F19.3°C 99% Calm Calm 2.0 mph3.2 kmh 29.97 in1014.9 mb 0.00 in0.0 mm 0.00 in/hr0.0 mm/hr 0.00 in0.0 mm
05:55 AM 66.9°F19.4°C 66.6°F19.2°C 99% Calm Calm -- 29.97 in1014.9 mb 0.00 in0.0 mm 0.00 in/hr0.0 mm/hr 0.00 in0.0 mm
06:00 AM 66.7°F19.3°C 66.4°F19.1°C 99% Calm Calm -- 29.97 in1014.9 mb 0.00 in0.0 mm 0.00 in/hr0.0 mm/hr 0.00 in0.0 mm
06:05 AM 66.5°F19.2°C 66.2°F19.0°C 99% Calm Calm -- 29.97 in1014.9 mb 0.00 in0.0 mm 0.00 in/hr0.0 mm/hr 0.00 in0.0 mm
06:10 AM 66.5°F19.2°C 66.2°F19.0°C 99% Calm Calm -- 29.97 in1014.9 mb 0.00 in0.0 mm 0.00 in/hr0.0 mm/hr 0.00 in0.0 mm
06:15 AM 66.7°F19.3°C 66.4°F19.1°C 99% Calm Calm -- 29.98 in1015.2 mb 0.00 in0.0 mm 0.00 in/hr0.0 mm/hr 0.00 in0.0 mm
06:20 AM 66.7°F19.3°C 66.4°F19.1°C 99% Calm Calm -- 29.97 in1014.9 mb 0.00 in0.0 mm 0.00 in/hr0.0 mm/hr 0.00 in0.0 mm
06:25 AM 66.7°F19.3°C 66.4°F19.1°C 99% Calm Calm -- 29.97 in1014.9 mb 0.00 in0.0 mm 0.00 in/hr0.0 mm/hr 0.00 in0.0 mm
06:30 AM 66.7°F19.3°C 66.4°F19.1°C 99% Calm Calm -- 29.97 in1014.9 mb 0.00 in0.0 mm 0.00 in/hr0.0 mm/hr 0.00 in0.0 mm
06:35 AM 66.9°F19.4°C 66.6°F19.2°C 99% Calm Calm -- 29.98 in1015.2 mb 0.00 in0.0 mm 0.00 in/hr0.0 mm/hr 0.00 in0.0 mm
06:40 AM 66.9°F19.4°C 66.6°F19.2°C 99% Calm Calm -- 29.98 in1015.2 mb 0.00 in0.0 mm 0.00 in/hr0.0 mm/hr 0.00 in0.0 mm
06:45 AM 67.1°F19.5°C 66.8°F19.3°C 99% Calm Calm -- 29.98 in1015.2 mb 0.00 in0.0 mm 0.00 in/hr0.0 mm/hr 0.00 in0.0 mm
06:50 AM 67.1°F19.5°C 66.8°F19.3°C 99% Calm Calm -- 29.98 in1015.2 mb 0.00 in0.0 mm 0.00 in/hr0.0 mm/hr 0.00 in0.0 mm
06:55 AM 67.2°F19.6°C 66.9°F19.4°C 99% Calm Calm -- 29.98 in1015.2 mb 0.00 in0.0 mm 0.00 in/hr0.0 mm/hr 0.00 in0.0 mm
07:00 AM 67.4°F19.7°C 67.1°F19.5°C 99% Calm Calm 1.0 mph1.6 kmh 29.99 in1015.6 mb 0.00 in0.0 mm 0.00 in/hr0.0 mm/hr 0.00 in0.0 mm
07:05 AM 67.6°F19.8°C 67.3°F19.6°C 99% Calm Calm -- 29.99 in1015.6 mb 0.00 in0.0 mm 0.00 in/hr0.0 mm/hr 0.00 in0.0 mm
07:10 AM 67.8°F19.9°C 67.5°F19.7°C 99% Calm Calm -- 29.99 in1015.6 mb 0.00 in0.0 mm 0.00 in/hr0.0 mm/hr 0.00 in0.0 mm
07:15 AM 68.0°F20.0°C 67.7°F19.8°C 99% Calm Calm -- 29.99 in1015.6 mb 0.00 in0.0 mm 0.00 in/hr0.0 mm/hr 0.00 in0.0 mm
07:21 AM 68.3°F20.2°C 68.0°F20.0°C 99% Calm Calm -- 29.99 in1015.6 mb 0.00 in0.0 mm 0.00 in/hr0.0 mm/hr 0.00 in0.0 mm
07:25 AM 68.5°F20.3°C 68.2°F20.1°C 99% Calm Calm -- 29.99 in1015.6 mb 0.00 in0.0 mm 0.00 in/hr0.0 mm/hr 0.00 in0.0 mm
07:30 AM 68.9°F20.5°C 68.6°F20.3°C 99% Calm Calm -- 29.99 in1015.6 mb 0.00 in0.0 mm 0.00 in/hr0.0 mm/hr 0.00 in0.0 mm
07:35 AM 69.4°F20.8°C 69.1°F20.6°C 99% Calm Calm -- 29.99 in1015.6 mb 0.00 in0.0 mm 0.00 in/hr0.0 mm/hr 0.00 in0.0 mm
07:40 AM 69.8°F21.0°C 69.2°F20.7°C 98% Calm Calm -- 29.99 in1015.6 mb 0.00 in0.0 mm 0.00 in/hr0.0 mm/hr 0.00 in0.0 mm
07:45 AM 69.8°F21.0°C 69.2°F20.7°C 98% Calm Calm -- 29.99 in1015.6 mb 0.00 in0.0 mm 0.00 in/hr0.0 mm/hr 0.00 in0.0 mm
07:50 AM 69.9°F21.1°C 69.3°F20.7°C 98% 2.0 mph ESE3.2 kmh ESE 2.0 mph3.2 kmh 29.98 in1015.2 mb 0.00 in0.0 mm 0.00 in/hr0.0 mm/hr 0.00 in0.0 mm
07:55 AM 70.1°F21.2°C 69.5°F20.8°C 98% Calm Calm 2.0 mph3.2 kmh 29.99 in1015.6 mb 0.00 in0.0 mm 0.00 in/hr0.0 mm/hr 0.00 in0.0 mm
08:00 AM 70.5°F21.4°C 69.9°F21.1°C 98% 1.0 mph SSE1.6 kmh SSE 2.0 mph3.2 kmh 29.98 in1015.2 mb 0.00 in0.0 mm 0.00 in/hr0.0 mm/hr 0.00 in0.0 mm
08:05 AM 71.0°F21.7°C 70.4°F21.3°C 98% Calm Calm 1.0 mph1.6 kmh 29.97 in1014.9 mb 0.00 in0.0 mm 0.00 in/hr0.0 mm/hr 0.00 in0.0 mm
08:10 AM 71.2°F21.8°C 70.6°F21.4°C 98% Calm Calm 2.0 mph3.2 kmh 29.97 in1014.9 mb 0.00 in0.0 mm 0.00 in/hr0.0 mm/hr 0.00 in0.0 mm
08:15 AM 71.9°F22.2°C 71.0°F21.7°C 97% Calm Calm 2.0 mph3.2 kmh 29.97 in1014.9 mb 0.00 in0.0 mm 0.00 in/hr0.0 mm/hr 0.00 in0.0 mm
08:20 AM 71.9°F22.2°C 71.0°F21.7°C 97% Calm Calm -- 29.97 in1014.9 mb 0.00 in0.0 mm 0.00 in/hr0.0 mm/hr 0.00 in0.0 mm
08:25 AM 72.8°F22.7°C 71.9°F22.2°C 97% 2.0 mph SSE3.2 kmh SSE 4.0 mph6.4 kmh 29.97 in1014.9 mb 0.00 in0.0 mm 0.00 in/hr0.0 mm/hr 0.00 in0.0 mm
08:30 AM 73.4°F23.0°C 73.0°F22.8°C 99% 3.0 mph SSE4.8 kmh SSE 4.0 mph6.4 kmh 29.96 in1014.6 mb 0.00 in0.0 mm 0.00 in/hr0.0 mm/hr 0.00 in0.0 mm
08:35 AM 74.1°F23.4°C 73.8°F23.2°C 99% Calm Calm 3.0 mph4.8 kmh 29.96 in1014.6 mb 0.00 in0.0 mm 0.00 in/hr0.0 mm/hr 0.00 in0.0 mm
08:40 AM 74.6°F23.7°C 73.7°F23.2°C 97% 1.0 mph SSE1.6 kmh SSE 5.0 mph8.0 kmh 29.96 in1014.6 mb 0.00 in0.0 mm 0.00 in/hr0.0 mm/hr 0.00 in0.0 mm
08:45 AM 75.2°F24.0°C 73.6°F23.1°C 95% 1.0 mph NNE1.6 kmh NNE 3.0 mph4.8 kmh 29.96 in1014.6 mb 0.00 in0.0 mm 0.00 in/hr0.0 mm/hr 0.00 in0.0 mm
08:50 AM 75.7°F24.3°C 73.5°F23.1°C 93% 2.0 mph SSE3.2 kmh SSE 3.0 mph4.8 kmh 29.95 in1014.2 mb 0.00 in0.0 mm 0.00 in/hr0.0 mm/hr 0.00 in0.0 mm
08:55 AM 76.4°F24.7°C 73.9°F23.3°C 92% 1.0 mph WNW1.6 kmh WNW 3.0 mph4.8 kmh 29.95 in1014.2 mb 0.00 in0.0 mm 0.00 in/hr0.0 mm/hr 0.00 in0.0 mm
09:00 AM 76.6°F24.8°C 73.8°F23.2°C 91% 2.0 mph NNW3.2 kmh NNW 4.0 mph6.4 kmh 29.95 in1014.2 mb 0.00 in0.0 mm 0.00 in/hr0.0 mm/hr 0.00 in0.0 mm
09:05 AM 77.0°F25.0°C 73.4°F23.0°C 89% 1.0 mph SSW1.6 kmh SSW 2.0 mph3.2 kmh 29.94 in1013.9 mb 0.00 in0.0 mm 0.00 in/hr0.0 mm/hr 0.00 in0.0 mm
09:10 AM 77.3°F25.2°C 73.1°F22.8°C 87% 2.0 mph NNW3.2 kmh NNW 3.0 mph4.8 kmh 29.94 in1013.9 mb 0.00 in0.0 mm 0.00 in/hr0.0 mm/hr 0.00 in0.0 mm
09:15 AM 77.7°F25.4°C 73.1°F22.8°C 86% Calm Calm 2.0 mph3.2 kmh 29.94 in1013.9 mb 0.00 in0.0 mm 0.00 in/hr0.0 mm/hr 0.00 in0.0 mm
09:20 AM 78.2°F25.7°C 73.3°F22.9°C 85% 1.0 mph ESE1.6 kmh ESE 2.0 mph3.2 kmh 29.94 in1013.9 mb 0.00 in0.0 mm 0.00 in/hr0.0 mm/hr 0.00 in0.0 mm
09:25 AM 78.6°F25.9°C 73.7°F23.2°C 85% 1.0 mph SSE1.6 kmh SSE 2.0 mph3.2 kmh 29.94 in1013.9 mb 0.00 in0.0 mm 0.00 in/hr0.0 mm/hr 0.00 in0.0 mm
09:30 AM 78.8°F26.0°C 72.8°F22.7°C 82% 2.0 mph ENE3.2 kmh ENE 3.0 mph4.8 kmh 29.93 in1013.5 mb 0.00 in0.0 mm 0.00 in/hr0.0 mm/hr 0.00 in0.0 mm
09:35 AM 79.1°F26.2°C 73.1°F22.8°C 82% Calm Calm 2.0 mph3.2 kmh 29.93 in1013.5 mb 0.00 in0.0 mm 0.00 in/hr0.0 mm/hr 0.00 in0.0 mm
09:40 AM 79.5°F26.4°C 73.1°F22.8°C 81% 1.0 mph WNW1.6 kmh WNW 3.0 mph4.8 kmh 29.93 in1013.5 mb 0.00 in0.0 mm 0.00 in/hr0.0 mm/hr 0.00 in0.0 mm
09:45 AM 79.7°F26.5°C 73.7°F23.2°C 82% 2.0 mph ESE3.2 kmh ESE 4.0 mph6.4 kmh 29.92 in1013.2 mb 0.00 in0.0 mm 0.00 in/hr0.0 mm/hr 0.00 in0.0 mm
09:50 AM 79.7°F26.5°C 72.9°F22.7°C 80% 1.0 mph NNW1.6 kmh NNW 7.0 mph11.3 kmh 29.92 in1013.2 mb 0.00 in0.0 mm 0.00 in/hr0.0 mm/hr 0.00 in0.0 mm
09:55 AM 80.0°F26.7°C 73.3°F22.9°C 80% 1.0 mph ESE1.6 kmh ESE 3.0 mph4.8 kmh 29.92 in1013.2 mb 0.00 in0.0 mm 0.00 in/hr0.0 mm/hr 0.00 in0.0 mm
10:00 AM 80.6°F27.0°C 73.4°F23.0°C 79% 2.0 mph ENE3.2 kmh ENE 4.0 mph6.4 kmh 29.92 in1013.2 mb 0.00 in0.0 mm 0.00 in/hr0.0 mm/hr 0.00 in0.0 mm
10:05 AM 80.6°F27.0°C 73.4°F23.0°C 79% 2.0 mph ENE3.2 kmh ENE 3.0 mph4.8 kmh 29.91 in1012.9 mb 0.00 in0.0 mm 0.00 in/hr0.0 mm/hr 0.00 in0.0 mm
10:10 AM 81.1°F27.3°C 73.6°F23.1°C 78% 1.0 mph ENE1.6 kmh ENE 3.0 mph4.8 kmh 29.91 in1012.9 mb 0.00 in0.0 mm 0.00 in/hr0.0 mm/hr 0.00 in0.0 mm
10:15 AM 81.3°F27.4°C 73.0°F22.8°C 76% 2.0 mph ENE3.2 kmh ENE 4.0 mph6.4 kmh 29.91 in1012.9 mb 0.00 in0.0 mm 0.00 in/hr0.0 mm/hr 0.00 in0.0 mm
10:20 AM 81.5°F27.5°C 73.5°F23.1°C 77% 1.0 mph ENE1.6 kmh ENE 3.0 mph4.8 kmh 29.91 in1012.9 mb 0.00 in0.0 mm 0.00 in/hr0.0 mm/hr 0.00 in0.0 mm
10:25 AM 82.2°F27.9°C 74.6°F23.7°C 78% 2.0 mph NNW3.2 kmh NNW 4.0 mph6.4 kmh 29.90 in1012.5 mb 0.00 in0.0 mm 0.00 in/hr0.0 mm/hr 0.00 in0.0 mm
10:30 AM 82.7°F28.2°C 74.0°F23.3°C 75% 2.0 mph ENE3.2 kmh ENE 4.0 mph6.4 kmh 29.90 in1012.5 mb 0.00 in0.0 mm 0.00 in/hr0.0 mm/hr 0.00 in0.0 mm
10:35 AM 82.7°F28.2°C 73.1°F22.8°C 73% 1.0 mph SSE1.6 kmh SSE 4.0 mph6.4 kmh 29.89 in1012.2 mb 0.00 in0.0 mm 0.00 in/hr0.0 mm/hr 0.00 in0.0 mm
10:40 AM 83.1°F28.4°C 73.9°F23.3°C 74% 4.0 mph ESE6.4 kmh ESE 4.0 mph6.4 kmh 29.89 in1012.2 mb 0.00 in0.0 mm 0.00 in/hr0.0 mm/hr 0.00 in0.0 mm
10:45 AM 83.1°F28.4°C 73.1°F22.8°C 72% 1.0 mph WNW1.6 kmh WNW 3.0 mph4.8 kmh 29.90 in1012.5 mb 0.00 in0.0 mm 0.00 in/hr0.0 mm/hr 0.00 in0.0 mm
10:50 AM 83.3°F28.5°C 73.3°F22.9°C 72% 2.0 mph NNE3.2 kmh NNE 6.0 mph9.7 kmh 29.90 in1012.5 mb 0.00 in0.0 mm 0.00 in/hr0.0 mm/hr 0.00 in0.0 mm
10:55 AM 83.4°F28.6°C 73.4°F23.0°C 72% 2.0 mph WNW3.2 kmh WNW 4.0 mph6.4 kmh 29.89 in1012.2 mb 0.00 in0.0 mm 0.00 in/hr0.0 mm/hr 0.00 in0.0 mm
11:00 AM 83.8°F28.8°C 73.4°F23.0°C 71% 4.0 mph SE6.4 kmh SE 8.0 mph12.9 kmh 29.89 in1012.2 mb 0.00 in0.0 mm 0.00 in/hr0.0 mm/hr 0.00 in0.0 mm
11:05 AM 84.2°F29.0°C 73.7°F23.2°C 71% 2.0 mph SSW3.2 kmh SSW 4.0 mph6.4 kmh 29.89 in1012.2 mb 0.00 in0.0 mm 0.00 in/hr0.0 mm/hr 0.00 in0.0 mm
11:10 AM 84.2°F29.0°C 73.3°F22.9°C 70% 3.0 mph ESE4.8 kmh ESE 5.0 mph8.0 kmh 29.88 in1011.9 mb 0.00 in0.0 mm 0.00 in/hr0.0 mm/hr 0.00 in0.0 mm
11:15 AM 84.3°F29.1°C 73.9°F23.3°C 71% 2.0 mph ENE3.2 kmh ENE 3.0 mph4.8 kmh 29.89 in1012.2 mb 0.00 in0.0 mm 0.00 in/hr0.0 mm/hr 0.00 in0.0 mm
11:20 AM 84.5°F29.2°C 74.0°F23.3°C 71% Calm Calm 3.0 mph4.8 kmh 29.88 in1011.9 mb 0.00 in0.0 mm 0.00 in/hr0.0 mm/hr 0.00 in0.0 mm
11:25 AM 84.7°F29.3°C 74.2°F23.4°C 71% 1.0 mph WSW1.6 kmh WSW 4.0 mph6.4 kmh 29.88 in1011.9 mb 0.00 in0.0 mm 0.00 in/hr0.0 mm/hr 0.00 in0.0 mm
11:30 AM 85.2°F29.6°C 73.9°F23.3°C 69% 2.0 mph ESE3.2 kmh ESE 4.0 mph6.4 kmh 29.87 in1011.5 mb 0.00 in0.0 mm 0.00 in/hr0.0 mm/hr 0.00 in0.0 mm
11:35 AM 85.4°F29.7°C 74.0°F23.3°C 69% Calm Calm 4.0 mph6.4 kmh 29.87 in1011.5 mb 0.00 in0.0 mm 0.00 in/hr0.0 mm/hr 0.00 in0.0 mm
11:40 AM 86.0°F30.0°C 74.1°F23.4°C 68% 2.0 mph WNW3.2 kmh WNW 4.0 mph6.4 kmh 29.87 in1011.5 mb 0.00 in0.0 mm 0.00 in/hr0.0 mm/hr 0.00 in0.0 mm
11:45 AM 86.0°F30.0°C 73.2°F22.9°C 66% 4.0 mph NNE6.4 kmh NNE 6.0 mph9.7 kmh 29.87 in1011.5 mb 0.00 in0.0 mm 0.00 in/hr0.0 mm/hr 0.00 in0.0 mm
11:50 AM 85.4°F29.7°C 73.6°F23.1°C 68% 3.0 mph ESE4.8 kmh ESE 4.0 mph6.4 kmh 29.87 in1011.5 mb 0.00 in0.0 mm 0.00 in/hr0.0 mm/hr 0.00 in0.0 mm
11:55 AM 85.6°F29.8°C 72.9°F22.7°C 66% 2.0 mph ESE3.2 kmh ESE 4.0 mph6.4 kmh 29.86 in1011.2 mb 0.00 in0.0 mm 0.00 in/hr0.0 mm/hr 0.00 in0.0 mm
12:00 PM 86.0°F30.0°C 72.3°F22.4°C 64% 2.0 mph ENE3.2 kmh ENE 4.0 mph6.4 kmh 29.86 in1011.2 mb 0.00 in0.0 mm 0.00 in/hr0.0 mm/hr 0.00 in0.0 mm
12:05 PM 86.0°F30.0°C 72.3°F22.4°C 64% 2.0 mph ENE3.2 kmh ENE 4.0 mph6.4 kmh 29.86 in1011.2 mb 0.00 in0.0 mm 0.00 in/hr0.0 mm/hr 0.00 in0.0 mm
12:10 PM 86.1°F30.1°C 71.1°F21.7°C 61% 3.0 mph ENE4.8 kmh ENE 4.0 mph6.4 kmh 29.86 in1011.2 mb 0.00 in0.0 mm 0.00 in/hr0.0 mm/hr 0.00 in0.0 mm
12:15 PM 85.6°F29.8°C 72.0°F22.2°C 64% 3.0 mph ESE4.8 kmh ESE 5.0 mph8.0 kmh 29.86 in1011.2 mb 0.00 in0.0 mm 0.00 in/hr0.0 mm/hr 0.00 in0.0 mm
12:20 PM 85.4°F29.7°C 72.7°F22.6°C 66% Calm Calm 3.0 mph4.8 kmh 29.86 in1011.2 mb 0.00 in0.0 mm 0.00 in/hr0.0 mm/hr 0.00 in0.0 mm
12:25 PM 85.1°F29.5°C 72.4°F22.4°C 66% 2.0 mph SSE3.2 kmh SSE 4.0 mph6.4 kmh 29.86 in1011.2 mb 0.00 in0.0 mm 0.00 in/hr0.0 mm/hr 0.00 in0.0 mm
12:30 PM 85.1°F29.5°C 72.4°F22.4°C 66% 1.0 mph ENE1.6 kmh ENE 3.0 mph4.8 kmh 29.86 in1011.2 mb 0.00 in0.0 mm 0.00 in/hr0.0 mm/hr 0.00 in0.0 mm
12:35 PM 84.9°F29.4°C 73.1°F22.8°C 68% 2.0 mph SSW3.2 kmh SSW 3.0 mph4.8 kmh 29.86 in1011.2 mb 0.00 in0.0 mm 0.00 in/hr0.0 mm/hr 0.00 in0.0 mm
12:40 PM 85.4°F29.7°C 71.8°F22.1°C 64% 2.0 mph WSW3.2 kmh WSW 5.0 mph8.0 kmh 29.85 in1010.8 mb 0.00 in0.0 mm 0.00 in/hr0.0 mm/hr 0.00 in0.0 mm
12:45 PM 85.6°F29.8°C 72.0°F22.2°C 64% 1.0 mph SSE1.6 kmh SSE 5.0 mph8.0 kmh 29.85 in1010.8 mb 0.00 in0.0 mm 0.00 in/hr0.0 mm/hr 0.00 in0.0 mm
12:50 PM 86.0°F30.0°C 73.2°F22.9°C 66% 2.0 mph SSE3.2 kmh SSE 3.0 mph4.8 kmh 29.85 in1010.8 mb 0.00 in0.0 mm 0.00 in/hr0.0 mm/hr 0.00 in0.0 mm
12:55 PM 86.1°F30.1°C 72.0°F22.2°C 63% 2.0 mph NNW3.2 kmh NNW 6.0 mph9.7 kmh 29.85 in1010.8 mb 0.00 in0.0 mm 0.00 in/hr0.0 mm/hr 0.00 in0.0 mm
01:00 PM 86.0°F30.0°C 71.4°F21.9°C 62% 1.0 mph ESE1.6 kmh ESE 4.0 mph6.4 kmh 29.85 in1010.8 mb 0.00 in0.0 mm 0.00 in/hr0.0 mm/hr 0.00 in0.0 mm
01:05 PM 86.0°F30.0°C 71.9°F22.2°C 63% 2.0 mph SSW3.2 kmh SSW 5.0 mph8.0 kmh 29.85 in1010.8 mb 0.00 in0.0 mm 0.00 in/hr0.0 mm/hr 0.00 in0.0 mm
01:10 PM 86.9°F30.5°C 71.7°F22.1°C 61% 2.0 mph SSW3.2 kmh SSW 6.0 mph9.7 kmh 29.85 in1010.8 mb 0.00 in0.0 mm 0.00 in/hr0.0 mm/hr 0.00 in0.0 mm
01:15 PM 86.7°F30.4°C 71.1°F21.7°C 60% 4.0 mph SSE6.4 kmh SSE 8.0 mph12.9 kmh 29.84 in1010.5 mb 0.00 in0.0 mm 0.00 in/hr0.0 mm/hr 0.00 in0.0 mm
01:20 PM 86.5°F30.3°C 71.4°F21.9°C 61% 1.0 mph WSW1.6 kmh WSW 4.0 mph6.4 kmh 29.84 in1010.5 mb 0.00 in0.0 mm 0.00 in/hr0.0 mm/hr 0.00 in0.0 mm
01:25 PM 87.0°F30.6°C 72.9°F22.7°C 63% 2.0 mph ENE3.2 kmh ENE 4.0 mph6.4 kmh 29.84 in1010.5 mb 0.00 in0.0 mm 0.00 in/hr0.0 mm/hr 0.00 in0.0 mm
01:30 PM 87.4°F30.8°C 71.8°F22.1°C 60% 4.0 mph ENE6.4 kmh ENE 8.0 mph12.9 kmh 29.84 in1010.5 mb 0.00 in0.0 mm 0.00 in/hr0.0 mm/hr 0.00 in0.0 mm
01:35 PM 87.8°F31.0°C 71.1°F21.7°C 58% 1.0 mph SSW1.6 kmh SSW 8.0 mph12.9 kmh 29.83 in1010.2 mb 0.00 in0.0 mm 0.00 in/hr0.0 mm/hr 0.00 in0.0 mm
01:40 PM 87.8°F31.0°C 70.6°F21.4°C 57% 2.0 mph SSE3.2 kmh SSE 6.0 mph9.7 kmh 29.83 in1010.2 mb 0.00 in0.0 mm 0.00 in/hr0.0 mm/hr 0.00 in0.0 mm
01:45 PM 87.2°F30.7°C 70.6°F21.4°C 58% 3.0 mph WSW4.8 kmh WSW 5.0 mph8.0 kmh 29.83 in1010.2 mb 0.00 in0.0 mm 0.00 in/hr0.0 mm/hr 0.00 in0.0 mm
01:50 PM 86.9°F30.5°C 70.3°F21.3°C 58% 2.0 mph SSE3.2 kmh SSE 8.0 mph12.9 kmh 29.83 in1010.2 mb 0.00 in0.0 mm 0.00 in/hr0.0 mm/hr 0.00 in0.0 mm
01:55 PM 86.9°F30.5°C 71.3°F21.8°C 60% 2.0 mph WSW3.2 kmh WSW 6.0 mph9.7 kmh 29.83 in1010.2 mb 0.00 in0.0 mm 0.00 in/hr0.0 mm/hr 0.00 in0.0 mm
02:00 PM 86.9°F30.5°C 71.3°F21.8°C 60% 2.0 mph NNE3.2 kmh NNE 4.0 mph6.4 kmh 29.83 in1010.2 mb 0.00 in0.0 mm 0.00 in/hr0.0 mm/hr 0.00 in0.0 mm
02:05 PM 86.9°F30.5°C 71.7°F22.1°C 61% 1.0 mph ESE1.6 kmh ESE 3.0 mph4.8 kmh 29.83 in1010.2 mb 0.00 in0.0 mm 0.00 in/hr0.0 mm/hr 0.00 in0.0 mm
02:10 PM 86.1°F30.1°C 71.5°F21.9°C 62% 2.0 mph ENE3.2 kmh ENE 8.0 mph12.9 kmh 29.83 in1010.2 mb 0.00 in0.0 mm 0.00 in/hr0.0 mm/hr 0.00 in0.0 mm
02:15 PM 86.9°F30.5°C 71.3°F21.8°C 60% 2.0 mph NNE3.2 kmh NNE 8.0 mph12.9 kmh 29.83 in1010.2 mb 0.00 in0.0 mm 0.00 in/hr0.0 mm/hr 0.00 in0.0 mm
02:20 PM 87.0°F30.6°C 71.9°F22.2°C 61% 2.0 mph WNW3.2 kmh WNW 9.0 mph14.5 kmh 29.82 in1009.8 mb 0.00 in0.0 mm 0.00 in/hr0.0 mm/hr 0.00 in0.0 mm
02:25 PM 87.0°F30.6°C 71.9°F22.2°C 61% 1.0 mph ESE1.6 kmh ESE 4.0 mph6.4 kmh 29.82 in1009.8 mb 0.00 in0.0 mm 0.00 in/hr0.0 mm/hr 0.00 in0.0 mm
02:30 PM 87.8°F31.0°C 71.6°F22.0°C 59% 4.0 mph ESE6.4 kmh ESE 7.0 mph11.3 kmh 29.81 in1009.5 mb 0.00 in0.0 mm 0.00 in/hr0.0 mm/hr 0.00 in0.0 mm
02:35 PM 87.9°F31.1°C 70.8°F21.6°C 57% 2.0 mph NNW3.2 kmh NNW 11.0 mph17.7 kmh 29.81 in1009.5 mb 0.00 in0.0 mm 0.00 in/hr0.0 mm/hr 0.00 in0.0 mm
02:40 PM 87.4°F30.8°C 71.3°F21.8°C 59% 1.0 mph NNE1.6 kmh NNE 8.0 mph12.9 kmh 29.81 in1009.5 mb 0.00 in0.0 mm 0.00 in/hr0.0 mm/hr 0.00 in0.0 mm
02:45 PM 87.2°F30.7°C 72.6°F22.6°C 62% 2.0 mph WNW3.2 kmh WNW 4.0 mph6.4 kmh 29.82 in1009.8 mb 0.00 in0.0 mm 0.00 in/hr0.0 mm/hr 0.00 in0.0 mm
02:50 PM 86.7°F30.4°C 71.6°F22.0°C 61% 4.0 mph NNW6.4 kmh NNW 8.0 mph12.9 kmh 29.81 in1009.5 mb 0.00 in0.0 mm 0.00 in/hr0.0 mm/hr 0.00 in0.0 mm
02:55 PM 87.0°F30.6°C 71.4°F21.9°C 60% 4.0 mph WSW6.4 kmh WSW 8.0 mph12.9 kmh 29.81 in1009.5 mb 0.00 in0.0 mm 0.00 in/hr0.0 mm/hr 0.00 in0.0 mm
03:00 PM 87.2°F30.7°C 70.6°F21.4°C 58% 4.0 mph ESE6.4 kmh ESE 8.0 mph12.9 kmh 29.80 in1009.1 mb 0.00 in0.0 mm 0.00 in/hr0.0 mm/hr 0.00 in0.0 mm
03:05 PM 87.2°F30.7°C 70.6°F21.4°C 58% 4.0 mph ESE6.4 kmh ESE 8.0 mph12.9 kmh 29.80 in1009.1 mb 0.00 in0.0 mm 0.00 in/hr0.0 mm/hr 0.00 in0.0 mm
03:10 PM 87.2°F30.7°C 71.1°F21.7°C 59% 2.0 mph SSE3.2 kmh SSE 6.0 mph9.7 kmh 29.80 in1009.1 mb 0.00 in0.0 mm 0.00 in/hr0.0 mm/hr 0.00 in0.0 mm
03:15 PM 87.6°F30.9°C 72.9°F22.7°C 62% 1.0 mph ENE1.6 kmh ENE 5.0 mph8.0 kmh 29.80 in1009.1 mb 0.00 in0.0 mm 0.00 in/hr0.0 mm/hr 0.00 in0.0 mm
03:20 PM 87.6°F30.9°C 71.9°F22.2°C 60% 2.0 mph ENE3.2 kmh ENE 3.0 mph4.8 kmh 29.80 in1009.1 mb 0.00 in0.0 mm 0.00 in/hr0.0 mm/hr 0.00 in0.0 mm
03:25 PM 86.9°F30.5°C 71.7°F22.1°C 61% 2.0 mph WSW3.2 kmh WSW 3.0 mph4.8 kmh 29.80 in1009.1 mb 0.00 in0.0 mm 0.00 in/hr0.0 mm/hr 0.00 in0.0 mm
03:30 PM 85.8°F29.9°C 72.2°F22.3°C 64% Calm Calm 3.0 mph4.8 kmh 29.80 in1009.1 mb 0.00 in0.0 mm 0.00 in/hr0.0 mm/hr 0.00 in0.0 mm
03:35 PM 85.6°F29.8°C 72.4°F22.4°C 65% 2.0 mph NNE3.2 kmh NNE 6.0 mph9.7 kmh 29.79 in1008.8 mb 0.00 in0.0 mm 0.00 in/hr0.0 mm/hr 0.00 in0.0 mm
03:40 PM 85.6°F29.8°C 72.9°F22.7°C 66% 1.0 mph SSE1.6 kmh SSE 4.0 mph6.4 kmh 29.79 in1008.8 mb 0.00 in0.0 mm 0.00 in/hr0.0 mm/hr 0.00 in0.0 mm
03:45 PM 85.6°F29.8°C 72.0°F22.2°C 64% 1.0 mph NNW1.6 kmh NNW 4.0 mph6.4 kmh 29.79 in1008.8 mb 0.00 in0.0 mm 0.00 in/hr0.0 mm/hr 0.00 in0.0 mm
03:50 PM 85.6°F29.8°C 72.0°F22.2°C 64% Calm Calm 2.0 mph3.2 kmh 29.80 in1009.1 mb 0.00 in0.0 mm 0.00 in/hr0.0 mm/hr 0.00 in0.0 mm
03:55 PM 85.6°F29.8°C 72.9°F22.7°C 66% 1.0 mph SSW1.6 kmh SSW 3.0 mph4.8 kmh 29.80 in1009.1 mb 0.00 in0.0 mm 0.00 in/hr0.0 mm/hr 0.00 in0.0 mm
04:00 PM 85.6°F29.8°C 72.9°F22.7°C 66% 2.0 mph SSE3.2 kmh SSE 8.0 mph12.9 kmh 29.80 in1009.1 mb 0.00 in0.0 mm 0.00 in/hr0.0 mm/hr 0.00 in0.0 mm
04:05 PM 85.2°F29.6°C 73.0°F22.8°C 67% 2.0 mph SSW3.2 kmh SSW 5.0 mph8.0 kmh 29.79 in1008.8 mb 0.00 in0.0 mm 0.00 in/hr0.0 mm/hr 0.00 in0.0 mm
04:10 PM 85.1°F29.5°C 72.8°F22.7°C 67% 1.0 mph ENE1.6 kmh ENE 3.0 mph4.8 kmh 29.79 in1008.8 mb 0.00 in0.0 mm 0.00 in/hr0.0 mm/hr 0.00 in0.0 mm
04:15 PM 85.2°F29.6°C 72.1°F22.3°C 65% 3.0 mph WSW4.8 kmh WSW 4.0 mph6.4 kmh 29.79 in1008.8 mb 0.00 in0.0 mm 0.00 in/hr0.0 mm/hr 0.00 in0.0 mm
04:20 PM 85.2°F29.6°C 71.6°F22.0°C 64% 2.0 mph WSW3.2 kmh WSW 5.0 mph8.0 kmh 29.79 in1008.8 mb 0.00 in0.0 mm 0.00 in/hr0.0 mm/hr 0.00 in0.0 mm
04:25 PM 85.4°F29.7°C 71.8°F22.1°C 64% 1.0 mph ENE1.6 kmh ENE 7.0 mph11.3 kmh 29.79 in1008.8 mb 0.00 in0.0 mm 0.00 in/hr0.0 mm/hr 0.00 in0.0 mm
04:30 PM 85.6°F29.8°C 72.0°F22.2°C 64% 2.0 mph SSE3.2 kmh SSE 10.0 mph16.1 kmh 29.78 in1008.5 mb 0.00 in0.0 mm 0.00 in/hr0.0 mm/hr 0.00 in0.0 mm
04:35 PM 86.1°F30.1°C 73.0°F22.8°C 65% 4.0 mph WSW6.4 kmh WSW 5.0 mph8.0 kmh 29.78 in1008.5 mb 0.00 in0.0 mm 0.00 in/hr0.0 mm/hr 0.00 in0.0 mm
04:40 PM 86.1°F30.1°C 72.5°F22.5°C 64% 2.0 mph NNE3.2 kmh NNE 4.0 mph6.4 kmh 29.78 in1008.5 mb 0.00 in0.0 mm 0.00 in/hr0.0 mm/hr 0.00 in0.0 mm
04:45 PM 86.1°F30.1°C 73.4°F23.0°C 66% 1.0 mph ENE1.6 kmh ENE 2.0 mph3.2 kmh 29.78 in1008.5 mb 0.00 in0.0 mm 0.00 in/hr0.0 mm/hr 0.00 in0.0 mm
04:50 PM 86.1°F30.1°C 72.5°F22.5°C 64% Calm Calm 4.0 mph6.4 kmh 29.78 in1008.5 mb 0.00 in0.0 mm 0.00 in/hr0.0 mm/hr 0.00 in0.0 mm
04:55 PM 85.4°F29.7°C 72.3°F22.4°C 65% 2.0 mph ENE3.2 kmh ENE 7.0 mph11.3 kmh 29.78 in1008.5 mb 0.00 in0.0 mm 0.00 in/hr0.0 mm/hr 0.00 in0.0 mm
05:00 PM 84.7°F29.3°C 72.5°F22.5°C 67% Calm Calm 7.0 mph11.3 kmh 29.78 in1008.5 mb 0.00 in0.0 mm 0.00 in/hr0.0 mm/hr 0.00 in0.0 mm
05:05 PM 84.3°F29.1°C 72.6°F22.6°C 68% 1.0 mph ENE1.6 kmh ENE 2.0 mph3.2 kmh 29.77 in1008.1 mb 0.00 in0.0 mm 0.00 in/hr0.0 mm/hr 0.00 in0.0 mm
05:10 PM 84.0°F28.9°C 73.1°F22.8°C 70% 1.0 mph WNW1.6 kmh WNW 2.0 mph3.2 kmh 29.78 in1008.5 mb 0.00 in0.0 mm 0.00 in/hr0.0 mm/hr 0.00 in0.0 mm
05:15 PM 83.6°F28.7°C 73.6°F23.1°C 72% 2.0 mph NNW3.2 kmh NNW 2.0 mph3.2 kmh 29.81 in1009.5 mb 0.00 in0.0 mm 0.00 in/hr0.0 mm/hr 0.00 in0.0 mm
05:20 PM 82.2°F27.9°C 71.4°F21.9°C 70% 4.0 mph NNE6.4 kmh NNE 8.0 mph12.9 kmh 29.80 in1009.1 mb 0.00 in0.0 mm 0.00 in/hr0.0 mm/hr 0.00 in0.0 mm
05:25 PM 79.8°F26.6°C 69.1°F20.6°C 70% 4.0 mph NNW6.4 kmh NNW 11.0 mph17.7 kmh 29.79 in1008.8 mb 0.00 in0.0 mm 0.00 in/hr0.0 mm/hr 0.00 in0.0 mm
05:30 PM 78.8°F26.0°C 68.5°F20.3°C 71% 2.0 mph NNE3.2 kmh NNE 8.0 mph12.9 kmh 29.80 in1009.1 mb 0.00 in0.0 mm 0.00 in/hr0.0 mm/hr 0.00 in0.0 mm
05:35 PM 78.4°F25.8°C 69.4°F20.8°C 74% 1.0 mph WNW1.6 kmh WNW 3.0 mph4.8 kmh 29.80 in1009.1 mb 0.00 in0.0 mm 0.00 in/hr0.0 mm/hr 0.00 in0.0 mm
05:40 PM 78.2°F25.7°C 69.2°F20.7°C 74% 1.0 mph SSW1.6 kmh SSW 3.0 mph4.8 kmh 29.79 in1008.8 mb 0.00 in0.0 mm 0.00 in/hr0.0 mm/hr 0.00 in0.0 mm
05:45 PM 78.6°F25.9°C 69.2°F20.7°C 73% 2.0 mph SSE3.2 kmh SSE 3.0 mph4.8 kmh 29.79 in1008.8 mb 0.00 in0.0 mm 0.00 in/hr0.0 mm/hr 0.00 in0.0 mm
05:50 PM 79.1°F26.2°C 68.9°F20.5°C 71% 1.0 mph NNW1.6 kmh NNW 4.0 mph6.4 kmh 29.79 in1008.8 mb 0.00 in0.0 mm 0.00 in/hr0.0 mm/hr 0.00 in0.0 mm
05:55 PM 79.5°F26.4°C 69.2°F20.7°C 71% Calm Calm 2.0 mph3.2 kmh 29.79 in1008.8 mb 0.00 in0.0 mm 0.00 in/hr0.0 mm/hr 0.00 in0.0 mm
06:00 PM 79.5°F26.4°C 69.2°F20.7°C 71% 1.0 mph NNW1.6 kmh NNW 3.0 mph4.8 kmh 29.78 in1008.5 mb 0.00 in0.0 mm 0.00 in/hr0.0 mm/hr 0.00 in0.0 mm
06:05 PM 79.5°F26.4°C 69.2°F20.7°C 71% 2.0 mph SSE3.2 kmh SSE 4.0 mph6.4 kmh 29.78 in1008.5 mb 0.00 in0.0 mm 0.00 in/hr0.0 mm/hr 0.00 in0.0 mm
06:10 PM 79.7°F26.5°C 69.4°F20.8°C 71% Calm Calm 2.0 mph3.2 kmh 29.78 in1008.5 mb 0.00 in0.0 mm 0.00 in/hr0.0 mm/hr 0.00 in0.0 mm
06:15 PM 79.7°F26.5°C 69.8°F21.0°C 72% Calm Calm -- 29.77 in1008.1 mb 0.00 in0.0 mm 0.00 in/hr0.0 mm/hr 0.00 in0.0 mm
06:20 PM 79.5°F26.4°C 69.2°F20.7°C 71% Calm Calm 1.0 mph1.6 kmh 29.77 in1008.1 mb 0.00 in0.0 mm 0.00 in/hr0.0 mm/hr 0.00 in0.0 mm
06:25 PM 79.5°F26.4°C 70.0°F21.1°C 73% Calm Calm -- 29.77 in1008.1 mb 0.00 in0.0 mm 0.00 in/hr0.0 mm/hr 0.00 in0.0 mm
06:30 PM 79.5°F26.4°C 70.4°F21.3°C 74% Calm Calm -- 29.76 in1007.8 mb 0.00 in0.0 mm 0.00 in/hr0.0 mm/hr 0.00 in0.0 mm
06:35 PM 79.3°F26.3°C 70.7°F21.5°C 75% Calm Calm -- 29.76 in1007.8 mb 0.00 in0.0 mm 0.00 in/hr0.0 mm/hr 0.00 in0.0 mm
06:40 PM 79.1°F26.2°C 70.5°F21.4°C 75% Calm Calm -- 29.76 in1007.8 mb 0.00 in0.0 mm 0.00 in/hr0.0 mm/hr 0.00 in0.0 mm
06:45 PM 78.9°F26.1°C 70.7°F21.5°C 76% 1.0 mph SSW1.6 kmh SSW 2.0 mph3.2 kmh 29.78 in1008.5 mb 0.00 in0.0 mm 0.00 in/hr0.0 mm/hr 0.00 in0.0 mm
06:50 PM 78.6°F25.9°C 71.1°F21.7°C 78% Calm Calm 2.0 mph3.2 kmh 29.80 in1009.1 mb 0.00 in0.0 mm 0.00 in/hr0.0 mm/hr 0.00 in0.0 mm
06:55 PM 77.3°F25.2°C 69.5°F20.8°C 77% 1.0 mph ESE1.6 kmh ESE 7.0 mph11.3 kmh 29.80 in1009.1 mb 0.11 in2.8 mm 1.32 in/hr33.5 mm/hr 0.11 in2.8 mm
07:00 PM 75.9°F24.4°C 69.6°F20.9°C 81% Calm Calm 3.0 mph4.8 kmh 29.81 in1009.5 mb 0.13 in3.3 mm 0.02 in/hr0.5 mm/hr 0.13 in3.3 mm
07:05 PM 75.0°F23.9°C 70.1°F21.2°C 85% 1.0 mph ESE1.6 kmh ESE 4.0 mph6.4 kmh 29.81 in1009.5 mb 0.24 in6.1 mm 1.32 in/hr33.5 mm/hr 0.24 in6.1 mm
07:10 PM 74.6°F23.7°C 71.1°F21.7°C 89% 1.0 mph ENE1.6 kmh ENE 3.0 mph4.8 kmh 29.80 in1009.1 mb 0.37 in9.4 mm 1.56 in/hr39.6 mm/hr 0.37 in9.4 mm
07:15 PM 74.1°F23.4°C 71.3°F21.8°C 91% 2.0 mph NNE3.2 kmh NNE 2.0 mph3.2 kmh 29.81 in1009.5 mb 0.38 in9.7 mm 0.12 in/hr3.0 mm/hr 0.38 in9.7 mm
07:20 PM 73.5°F23.1°C 71.1°F21.7°C 92% Calm Calm 2.0 mph3.2 kmh 29.81 in1009.5 mb 0.38 in9.7 mm 0.00 in/hr0.0 mm/hr 0.38 in9.7 mm
07:25 PM 73.4°F23.0°C 70.9°F21.6°C 92% Calm Calm -- 29.82 in1009.8 mb 0.38 in9.7 mm 0.00 in/hr0.0 mm/hr 0.38 in9.7 mm
07:30 PM 73.5°F23.1°C 71.4°F21.9°C 93% Calm Calm 2.0 mph3.2 kmh 29.81 in1009.5 mb 0.38 in9.7 mm 0.00 in/hr0.0 mm/hr 0.38 in9.7 mm
07:35 PM 73.5°F23.1°C 71.7°F22.1°C 94% Calm Calm 2.0 mph3.2 kmh 29.82 in1009.8 mb 0.38 in9.7 mm 0.00 in/hr0.0 mm/hr 0.38 in9.7 mm
07:40 PM 73.5°F23.1°C 71.7°F22.1°C 94% Calm Calm 2.0 mph3.2 kmh 29.82 in1009.8 mb 0.38 in9.7 mm 0.00 in/hr0.0 mm/hr 0.38 in9.7 mm
07:45 PM 73.5°F23.1°C 72.0°F22.2°C 95% Calm Calm 1.0 mph1.6 kmh 29.82 in1009.8 mb 0.38 in9.7 mm 0.00 in/hr0.0 mm/hr 0.38 in9.7 mm
07:50 PM 73.4°F23.0°C 71.8°F22.1°C 95% Calm Calm -- 29.83 in1010.2 mb 0.38 in9.7 mm 0.00 in/hr0.0 mm/hr 0.38 in9.7 mm
07:55 PM 73.5°F23.1°C 72.0°F22.2°C 95% Calm Calm 1.0 mph1.6 kmh 29.84 in1010.5 mb 0.27 in6.9 mm 0.00 in/hr0.0 mm/hr 0.38 in9.7 mm
08:00 PM 73.5°F23.1°C 72.0°F22.2°C 95% Calm Calm 2.0 mph3.2 kmh 29.84 in1010.5 mb 0.25 in6.4 mm 0.00 in/hr0.0 mm/hr 0.38 in9.7 mm
08:05 PM 73.5°F23.1°C 72.3°F22.4°C 96% 1.0 mph WSW1.6 kmh WSW 2.0 mph3.2 kmh 29.85 in1010.8 mb 0.14 in3.6 mm 0.00 in/hr0.0 mm/hr 0.38 in9.7 mm
08:10 PM 73.5°F23.1°C 72.3°F22.4°C 96% 1.0 mph SSW1.6 kmh SSW 2.0 mph3.2 kmh 29.85 in1010.8 mb 0.05 in1.3 mm 0.00 in/hr0.0 mm/hr 0.41 in10.4 mm
08:15 PM 73.5°F23.1°C 72.3°F22.4°C 96% 2.0 mph NNE3.2 kmh NNE 3.0 mph4.8 kmh 29.85 in1010.8 mb 0.08 in2.0 mm 0.36 in/hr9.1 mm/hr 0.46 in11.7 mm
08:20 PM 73.4°F23.0°C 72.1°F22.3°C 96% Calm Calm 2.0 mph3.2 kmh 29.85 in1010.8 mb 0.08 in2.0 mm 0.00 in/hr0.0 mm/hr 0.46 in11.7 mm
08:25 PM 73.4°F23.0°C 72.4°F22.4°C 97% 2.0 mph WNW3.2 kmh WNW 4.0 mph6.4 kmh 29.85 in1010.8 mb 0.08 in2.0 mm 0.00 in/hr0.0 mm/hr 0.46 in11.7 mm
08:30 PM 73.0°F22.8°C 71.8°F22.1°C 96% 1.0 mph ENE1.6 kmh ENE 4.0 mph6.4 kmh 29.85 in1010.8 mb 0.09 in2.3 mm 0.12 in/hr3.0 mm/hr 0.47 in11.9 mm
08:35 PM 72.8°F22.7°C 71.6°F22.0°C 96% Calm Calm 3.0 mph4.8 kmh 29.86 in1011.2 mb 0.09 in2.3 mm 0.00 in/hr0.0 mm/hr 0.47 in11.9 mm
08:40 PM 72.6°F22.6°C 71.4°F21.9°C 96% Calm Calm 2.0 mph3.2 kmh 29.86 in1011.2 mb 0.09 in2.3 mm 0.00 in/hr0.0 mm/hr 0.47 in11.9 mm
08:45 PM 72.3°F22.4°C 71.1°F21.7°C 96% Calm Calm 2.0 mph3.2 kmh 29.87 in1011.5 mb 0.09 in2.3 mm 0.00 in/hr0.0 mm/hr 0.47 in11.9 mm
08:50 PM 72.3°F22.4°C 71.1°F21.7°C 96% Calm Calm 1.0 mph1.6 kmh 29.86 in1011.2 mb 0.09 in2.3 mm 0.00 in/hr0.0 mm/hr 0.47 in11.9 mm
08:55 PM 71.9°F22.2°C 70.7°F21.5°C 96% Calm Calm 1.0 mph1.6 kmh 29.87 in1011.5 mb 0.09 in2.3 mm 0.00 in/hr0.0 mm/hr 0.47 in11.9 mm
09:01 PM 71.9°F22.2°C 70.7°F21.5°C 96% 1.0 mph ENE1.6 kmh ENE 3.0 mph4.8 kmh 29.87 in1011.5 mb 0.09 in2.3 mm 0.00 in/hr0.0 mm/hr 0.47 in11.9 mm
09:05 PM 71.7°F22.1°C 70.5°F21.4°C 96% Calm Calm 3.0 mph4.8 kmh 29.87 in1011.5 mb 0.09 in2.3 mm 0.00 in/hr0.0 mm/hr 0.47 in11.9 mm
09:10 PM 71.6°F22.0°C 70.3°F21.3°C 96% Calm Calm 1.0 mph1.6 kmh 29.87 in1011.5 mb 0.06 in1.5 mm 0.00 in/hr0.0 mm/hr 0.47 in11.9 mm
09:15 PM 71.6°F22.0°C 70.3°F21.3°C 96% 1.0 mph W1.6 kmh W 2.0 mph3.2 kmh 29.87 in1011.5 mb 0.01 in0.3 mm 0.00 in/hr0.0 mm/hr 0.47 in11.9 mm
09:20 PM 71.6°F22.0°C 70.6°F21.4°C 97% 1.0 mph WSW1.6 kmh WSW 2.0 mph3.2 kmh 29.88 in1011.9 mb 0.01 in0.3 mm 0.00 in/hr0.0 mm/hr 0.47 in11.9 mm
09:25 PM 71.6°F22.0°C 70.6°F21.4°C 97% 1.0 mph WSW1.6 kmh WSW 3.0 mph4.8 kmh 29.88 in1011.9 mb 0.01 in0.3 mm 0.00 in/hr0.0 mm/hr 0.47 in11.9 mm
09:30 PM 71.4°F21.9°C 70.8°F21.6°C 98% 2.0 mph SSW3.2 kmh SSW 2.0 mph3.2 kmh 29.88 in1011.9 mb 0.00 in0.0 mm 0.00 in/hr0.0 mm/hr 0.47 in11.9 mm
09:35 PM 71.2°F21.8°C 70.6°F21.4°C 98% 1.0 mph NNW1.6 kmh NNW 2.0 mph3.2 kmh 29.88 in1011.9 mb 0.00 in0.0 mm 0.00 in/hr0.0 mm/hr 0.47 in11.9 mm
09:40 PM 71.2°F21.8°C 70.6°F21.4°C 98% 1.0 mph ENE1.6 kmh ENE 2.0 mph3.2 kmh 29.88 in1011.9 mb 0.00 in0.0 mm 0.00 in/hr0.0 mm/hr 0.47 in11.9 mm
09:45 PM 71.2°F21.8°C 70.6°F21.4°C 98% 1.0 mph SSE1.6 kmh SSE 4.0 mph6.4 kmh 29.88 in1011.9 mb 0.00 in0.0 mm 0.00 in/hr0.0 mm/hr 0.47 in11.9 mm
09:50 PM 70.8°F21.6°C 70.2°F21.2°C 98% 1.0 mph WSW1.6 kmh WSW 2.0 mph3.2 kmh 29.88 in1011.9 mb 0.00 in0.0 mm 0.00 in/hr0.0 mm/hr 0.47 in11.9 mm
09:55 PM 70.7°F21.5°C 70.1°F21.2°C 98% 2.0 mph WNW3.2 kmh WNW 3.0 mph4.8 kmh 29.88 in1011.9 mb 0.00 in0.0 mm 0.00 in/hr0.0 mm/hr 0.47 in11.9 mm
10:00 PM 70.3°F21.3°C 69.7°F20.9°C 98% 2.0 mph WSW3.2 kmh WSW 3.0 mph4.8 kmh 29.88 in1011.9 mb 0.00 in0.0 mm 0.00 in/hr0.0 mm/hr 0.47 in11.9 mm
10:05 PM 70.1°F21.2°C 69.5°F20.8°C 98% 2.0 mph ESE3.2 kmh ESE 6.0 mph9.7 kmh 29.88 in1011.9 mb 0.00 in0.0 mm 0.00 in/hr0.0 mm/hr 0.47 in11.9 mm
10:10 PM 69.8°F21.0°C 69.2°F20.7°C 98% 1.0 mph WSW1.6 kmh WSW 4.0 mph6.4 kmh 29.89 in1012.2 mb 0.00 in0.0 mm 0.00 in/hr0.0 mm/hr 0.47 in11.9 mm
10:15 PM 69.6°F20.9°C 69.3°F20.7°C 99% 1.0 mph NNW1.6 kmh NNW 3.0 mph4.8 kmh 29.89 in1012.2 mb 0.00 in0.0 mm 0.00 in/hr0.0 mm/hr 0.47 in11.9 mm
10:20 PM 69.2°F20.7°C 68.9°F20.5°C 99% 1.0 mph WNW1.6 kmh WNW 3.0 mph4.8 kmh 29.90 in1012.5 mb 0.00 in0.0 mm 0.00 in/hr0.0 mm/hr 0.47 in11.9 mm
10:25 PM 69.0°F20.6°C 68.7°F20.4°C 99% 2.0 mph WNW3.2 kmh WNW 4.0 mph6.4 kmh 29.90 in1012.5 mb 0.00 in0.0 mm 0.00 in/hr0.0 mm/hr 0.47 in11.9 mm
10:30 PM 68.9°F20.5°C 68.6°F20.3°C 99% 1.0 mph WSW1.6 kmh WSW 3.0 mph4.8 kmh 29.89 in1012.2 mb 0.00 in0.0 mm 0.00 in/hr0.0 mm/hr 0.47 in11.9 mm
10:36 PM 68.7°F20.4°C 68.4°F20.2°C 99% 1.0 mph NNW1.6 kmh NNW 2.0 mph3.2 kmh 29.90 in1012.5 mb 0.00 in0.0 mm 0.00 in/hr0.0 mm/hr 0.47 in11.9 mm
10:40 PM 68.7°F20.4°C 68.4°F20.2°C 99% 2.0 mph NNW3.2 kmh NNW 2.0 mph3.2 kmh 29.89 in1012.2 mb 0.00 in0.0 mm 0.00 in/hr0.0 mm/hr 0.47 in11.9 mm
10:45 PM 68.5°F20.3°C 68.2°F20.1°C 99% 1.0 mph WNW1.6 kmh WNW 2.0 mph3.2 kmh 29.89 in1012.2 mb 0.00 in0.0 mm 0.00 in/hr0.0 mm/hr 0.47 in11.9 mm
10:50 PM 68.5°F20.3°C 68.2°F20.1°C 99% 1.0 mph WSW1.6 kmh WSW 2.0 mph3.2 kmh 29.89 in1012.2 mb 0.00 in0.0 mm 0.00 in/hr0.0 mm/hr 0.47 in11.9 mm
10:55 PM 68.3°F20.2°C 68.0°F20.0°C 99% 1.0 mph WNW1.6 kmh WNW 2.0 mph3.2 kmh 29.89 in1012.2 mb 0.00 in0.0 mm 0.00 in/hr0.0 mm/hr 0.47 in11.9 mm
11:00 PM 68.1°F20.1°C 67.8°F19.9°C 99% Calm Calm 2.0 mph3.2 kmh 29.89 in1012.2 mb 0.00 in0.0 mm 0.00 in/hr0.0 mm/hr 0.47 in11.9 mm
11:05 PM 68.1°F20.1°C 67.8°F19.9°C 99% Calm Calm 2.0 mph3.2 kmh 29.89 in1012.2 mb 0.00 in0.0 mm 0.00 in/hr0.0 mm/hr 0.47 in11.9 mm
11:10 PM 68.0°F20.0°C 67.7°F19.8°C 99% 1.0 mph WSW1.6 kmh WSW 2.0 mph3.2 kmh 29.89 in1012.2 mb 0.00 in0.0 mm 0.00 in/hr0.0 mm/hr 0.47 in11.9 mm
11:15 PM 68.0°F20.0°C 67.7°F19.8°C 99% Calm Calm 2.0 mph3.2 kmh 29.89 in1012.2 mb 0.00 in0.0 mm 0.00 in/hr0.0 mm/hr 0.47 in11.9 mm
11:20 PM 68.0°F20.0°C 67.7°F19.8°C 99% 1.0 mph WSW1.6 kmh WSW 2.0 mph3.2 kmh 29.89 in1012.2 mb 0.00 in0.0 mm 0.00 in/hr0.0 mm/hr 0.47 in11.9 mm
11:25 PM 67.6°F19.8°C 67.3°F19.6°C 99% Calm Calm 2.0 mph3.2 kmh 29.89 in1012.2 mb 0.00 in0.0 mm 0.00 in/hr0.0 mm/hr 0.47 in11.9 mm
11:30 PM 67.6°F19.8°C 67.3°F19.6°C 99% 1.0 mph SSE1.6 kmh SSE 2.0 mph3.2 kmh 29.89 in1012.2 mb 0.00 in0.0 mm 0.00 in/hr0.0 mm/hr 0.47 in11.9 mm
11:35 PM 67.4°F19.7°C 67.1°F19.5°C 99% Calm Calm 4.0 mph6.4 kmh 29.89 in1012.2 mb 0.00 in0.0 mm 0.00 in/hr0.0 mm/hr 0.47 in11.9 mm
11:40 PM 67.4°F19.7°C 67.1°F19.5°C 99% 1.0 mph NNE1.6 kmh NNE 4.0 mph6.4 kmh 29.89 in1012.2 mb 0.00 in0.0 mm 0.00 in/hr0.0 mm/hr 0.47 in11.9 mm
11:45 PM 67.4°F19.7°C 67.1°F19.5°C 99% 1.0 mph NNW1.6 kmh NNW 2.0 mph3.2 kmh 29.89 in1012.2 mb 0.00 in0.0 mm 0.00 in/hr0.0 mm/hr 0.47 in11.9 mm
11:50 PM 67.4°F19.7°C 67.1°F19.5°C 99% Calm Calm 2.0 mph3.2 kmh 29.89 in1012.2 mb 0.00 in0.0 mm 0.00 in/hr0.0 mm/hr 0.47 in11.9 mm
11:55 PM 67.4°F19.7°C 67.1°F19.5°C 99% 2.0 mph ESE3.2 kmh ESE 4.0 mph6.4 kmh 29.89 in1012.2 mb 0.00 in0.0 mm 0.00 in/hr0.0 mm/hr 0.47 in11.9 mm